Impacts METAR Board
IDs:

KTPA - Tampa Intl Arpt, FL, US

Updated at: 0000 UTC 05 Jul 2022
Potential Impact None Slight Moderate High
Time 04/12Z 04/13Z 04/14Z 04/15Z 04/16Z 04/17Z 04/18Z 04/19Z 04/20Z 04/21Z 04/22Z 04/23Z 05/00Z
Temp81 84 86 87 88 89 92 93 93 92 89 87 84
Dewpt73 74 75 76 76 73 74 74 74 72 75 75 72
Altim30.11 30.13 30.13 30.13 30.13 30.13 30.10 30.08 30.06 30.06 30.05 30.06 30.06
VIS10 10 10 10 10 10 10 10 10 10 10 10 10
CIG-- -- -- -- -- -- -- 40 250 35 70 70 250
CoverFEWFEWFEWSCTSCTSCTSCTBKNBKNBKNBKNBKNBKN
FltCatVFRVFRVFRVFRVFRVFRVFRVFRVFRVFRVFRVFRVFR
WX------------------TS-RATS--
WDir0023002402402202202302500260330
WSpd0 0 4 0 6 5 6 7 8 5 0 10 6
WGst-- -- -- -- -- -- -- -- -- -- -- -- 15
R01/19
XWnd VRB VRB 3 VRB 5 4 4 4 6 5 VRB 10 3
XGst -- -- -- -- -- -- -- -- -- -- -- -- 8
R10/28
XWnd VRB VRB -3 VRB -3 -3 -5 -6 -5 -2 VRB -2 5
XGst -- -- -- -- -- -- -- -- -- -- -- -- 13
Raw hourly METARs
KTPA 041153Z 00000KT 10SM FEW020 FEW220 27/23 A3011 RMK AO2 SLP195 CB DSNT SW-NW T02720228 10272 20256 53008
KTPA 041253Z 00000KT 10SM FEW020 FEW200 29/23 A3013 RMK AO2 SLP201 CB DSNT SW-NW T02890233
KTPA 041353Z 23004KT 10SM FEW020 FEW180 30/24 A3013 RMK AO2 SLP202 T03000239
KTPA 041453Z 00000KT 10SM SCT025 31/24 A3013 RMK AO2 SLP203 T03060244 51008 $
KTPA 041553Z 24006KT 10SM SCT030 31/24 A3013 RMK AO2 SLP203 T03110244 $
KTPA 041653Z 24005KT 10SM SCT035 32/23 A3013 RMK AO2 SLP200 CB DSNT S-W T03170228 $
KTPA 041753Z 22006KT 10SM SCT040 33/23 A3010 RMK AO2 SLP191 CB DSNT S T03330233 10333 20272 58012 $
KTPA 041853Z 22007KT 10SM BKN040 34/23 A3008 RMK AO2 LTG DSNT N SLP184 CB DSNT N AND S TCU DSNT ALQDS T03390233 $
KTPA 041953Z 23008KT 10SM SCT040CB BKN250 34/23 A3006 RMK AO2 LTG DSNT S SLP179 CB E MOV W TCU ALQDS T03390233 $
KTPA 042053Z 25005KT 10SM TS FEW015 BKN035CB BKN250 33/22 A3006 RMK AO2 LTG DSNT S TSB47 SLP177 OCNL LTGCG NE AND SE TS NE AND SE MOV W TCU ALQDS T03330222 56014 $
KTPA 042153Z 00000KT 10SM -RA FEW015 SCT035CB BKN070 BKN250 32/24 A3005 RMK AO2 LTG DSNT N AND SW RAB00 TSE16B17E30 SLP176 CB ALQDS MOV W P0000 T03170239 $
KTPA 042253Z 26010KT 10SM TS FEW015 SCT030CB BKN070 BKN250 31/24 A3006 RMK AO2 LTG DSNT W-NE RAE05B24E40 TSE04B22E37B50 SLP177 OCNL LTGCG W TS W MOV N CB DSNT N TCU NE VCSH W P0000 T03060239 $
KTPA 042353Z 33006G15KT 10SM FEW015 FEW030TCU SCT150 BKN250 29/22 A3006 RMK AO2 TSE05B06E44 SLP177 CB DSNT NW TCU E SHRA DSNT NW 60000 T02890222 10344 20289 53001 $



Page loaded:  00:32 UTC  |   05:32 PM Pacific  |   06:32 PM Mountain  |   07:32 PM Central  |   08:32 PM Eastern

 

ADVISORIES

FORECASTS

FORECASTS

OBSERVATIONS

USER TOOLS

ABOUT US